Погода Жагуаруанана 2 недели

Сеара, Бразилия

15 - 27 июля
  • 15июля
    Сегодня
    +22°
    +34°
    Небольшая облачность
    ВремяПогодаТемператураВлажностьДавлениеВетер, м/сВероятность осадков
    00:00Практически безоблачно+26°C73 %760 мм5.2 м/с3 %
    03:00Практически безоблачно+24°C75 %760 мм4.4 м/с3 %
    06:00Ясно и безоблачно+23°C78 %761 мм4.7 м/с3 %
    09:00Ясно и безоблачно+28°C57 %762 мм6.8 м/с3 %
    12:00Пасмурно, сплошная облачность+31°C43 %760 мм7.5 м/с5 %
    15:00Небольшая облачность+33°C39 %759 мм6.2 м/с3 %
    18:00Практически безоблачно+31°C45 %759 мм4.3 м/с3 %
    21:00Облачно с прояснениями+28°C72 %761 мм4.2 м/с2 %
  • 16июля
    Вторник
    +22°
    +34°
    Ясно и безоблачно
    ВремяПогодаТемператураВлажностьДавлениеВетер, м/сВероятность осадков
    00:00Ясно и безоблачно+26°C64 %761 мм5.8 м/с5 %
    03:00Ясно и безоблачно+23°C69 %760 мм5.1 м/с5 %
    06:00Ясно и безоблачно+22°C73 %761 мм4.6 м/с5 %
    09:00Ясно и безоблачно+28°C56 %762 мм6.6 м/с5 %
    12:00Ясно и безоблачно+32°C37 %760 мм6.1 м/с5 %
    15:00Ясно и безоблачно+34°C31 %758 мм5.0 м/с5 %
    18:00Ясно и безоблачно+29°C61 %759 мм5.4 м/с4 %
    21:00Практически безоблачно+27°C74 %761 мм3.2 м/с8 %
  • 17июля
    Среда
    +22°
    +34°
    Практически безоблачно
    ВремяПогодаТемператураВлажностьДавлениеВетер, м/сВероятность осадков
    00:00Ясно и безоблачно+26°C68 %761 мм4.8 м/с5 %
    03:00Ясно и безоблачно+24°C76 %760 мм5.3 м/с5 %
    06:00Ясно и безоблачно+23°C77 %761 мм4.4 м/с5 %
    09:00Ясно и безоблачно+28°C54 %762 мм6.2 м/с5 %
    12:00Практически безоблачно+32°C39 %760 мм5.9 м/с3 %
    15:00Практически безоблачно+34°C32 %758 мм4.4 м/с4 %
    18:00Ясно и безоблачно+28°C73 %759 мм5.0 м/с14 %
    21:00Ясно и безоблачно+27°C77 %760 мм4.4 м/с13 %
  • 18июля
    Четверг
    +21°
    +34°
    Небольшая облачность
    ВремяПогодаТемператураВлажностьДавлениеВетер, м/сВероятность осадков
    00:00Ясно и безоблачно+26°C69 %760 мм4.5 м/с5 %
    03:00Ясно и безоблачно+24°C75 %759 мм3.4 м/с4 %
    06:00Ясно и безоблачно+22°C79 %760 мм2.4 м/с4 %
    09:00Ясно и безоблачно+28°C56 %761 мм3.7 м/с3 %
    12:00Небольшая облачность+31°C43 %760 мм5.2 м/с18 %
    15:00Небольшая облачность+33°C37 %758 мм4.3 м/с26 %
    18:00Ясно и безоблачно+29°C65 %759 мм5.1 м/с45 %
    21:00Ясно и безоблачно+27°C74 %761 мм4.1 м/с49 %
Мы используем cookies
Соглашаюсь